createdAt,value
2023-05-15T00:02:06.717Z,100899.61
2023-05-15T00:05:37.449Z,100900.84
2023-05-15T00:09:01.139Z,100894.30
2023-05-15T00:12:47.940Z,100892.92
2023-05-15T00:16:22.518Z,100898.67
2023-05-15T00:19:57.892Z,100893.46
2023-05-15T00:23:27.843Z,100898.19
2023-05-15T00:27:01.659Z,100896.64
2023-05-15T00:30:28.316Z,100902.27
2023-05-15T00:33:34.887Z,100903.95
2023-05-15T00:37:21.408Z,100902.66
2023-05-15T00:41:02.482Z,100901.77
2023-05-15T00:44:50.448Z,100902.17
2023-05-15T00:48:29.872Z,100900.48
2023-05-15T00:52:09.489Z,100895.29
2023-05-15T00:55:50.200Z,100895.29
2023-05-15T00:59:29.888Z,100893.86
2023-05-15T01:03:10.116Z,100891.95
2023-05-15T01:06:46.982Z,100889.62
2023-05-15T01:10:10.656Z,100891.42
2023-05-15T01:13:47.462Z,100888.58
2023-05-15T01:17:27.164Z,100893.16
2023-05-15T01:21:15.253Z,100892.03
2023-05-15T01:24:59.674Z,100896.64
2023-05-15T01:28:25.309Z,100897.90
2023-05-15T01:32:01.428Z,100894.36
2023-05-15T01:35:52.524Z,100897.75
2023-05-15T01:39:26.780Z,100898.27
2023-05-15T01:43:14.721Z,100894.80
2023-05-15T01:46:48.383Z,100893.42
2023-05-15T01:50:36.501Z,100891.58
2023-05-15T01:54:15.467Z,100890.17
2023-05-15T01:57:45.018Z,100886.31
2023-05-15T02:01:33.025Z,100887.27
2023-05-15T02:05:21.111Z,100882.95
2023-05-15T02:09:09.154Z,100877.67
2023-05-15T02:12:22.525Z,100881.94
2023-05-15T02:15:26.209Z,100885.34
2023-05-15T02:18:43.165Z,100887.94
2023-05-15T02:21:43.551Z,100885.91
2023-05-15T02:24:55.862Z,100888.23
2023-05-15T02:28:11.176Z,100890.76
2023-05-15T02:31:49.296Z,100886.48
2023-05-15T02:35:44.317Z,100884.50
2023-05-15T02:39:23.953Z,100884.23
2023-05-15T02:42:37.806Z,100886.96
2023-05-15T02:46:08.803Z,100891.02
2023-05-15T02:49:29.362Z,100891.27
2023-05-15T02:53:13.678Z,100893.47
2023-05-15T02:56:37.276Z,100884.86
2023-05-15T03:00:16.519Z,100878.91
2023-05-15T03:03:53.650Z,100884.13
2023-05-15T03:07:15.559Z,100882.01
2023-05-15T03:10:35.181Z,100883.77
2023-05-15T03:14:23.113Z,100883.58
2023-05-15T03:17:53.289Z,100880.81
2023-05-15T03:21:22.183Z,100880.25
2023-05-15T03:24:30.261Z,100881.80
2023-05-15T03:27:58.632Z,100880.14
2023-05-15T03:31:11.466Z,100880.05
2023-05-15T03:33:58.070Z,100880.95
2023-05-15T03:37:24.158Z,100883.89
2023-05-15T03:41:14.379Z,100889.77
2023-05-15T03:44:37.819Z,100886.17
2023-05-15T03:47:54.466Z,100885.87
2023-05-15T03:51:33.933Z,100882.77
2023-05-15T03:55:12.221Z,100882.67
2023-05-15T03:58:40.209Z,100878.16
2023-05-15T04:01:37.203Z,100878.58
2023-05-15T04:05:19.778Z,100879.14
2023-05-15T04:09:07.841Z,100881.27
2023-05-15T04:12:39.169Z,100892.62
2023-05-15T04:16:20.025Z,100894.06
2023-05-15T04:19:59.148Z,100891.35
2023-05-15T04:23:12.920Z,100895.26
2023-05-15T04:26:18.712Z,100897.52
2023-05-15T04:29:32.027Z,100894.98
2023-05-15T04:33:04.216Z,100896.73
2023-05-15T04:36:46.898Z,100891.52
2023-05-15T04:40:18.159Z,100888.27
2023-05-15T04:44:06.190Z,100887.73
2023-05-15T04:47:47.517Z,100878.54
2023-05-15T04:51:28.355Z,100875.57
2023-05-15T04:55:08.681Z,100877.37
2023-05-15T04:58:29.483Z,100871.73
2023-05-15T05:02:06.421Z,100875.86
2023-05-15T05:05:27.929Z,100876.02
2023-05-15T05:08:38.667Z,100874.55
2023-05-15T05:12:11.990Z,100872.99
2023-05-15T05:15:24.391Z,100870.46
2023-05-15T05:19:02.260Z,100868.73
2023-05-15T05:22:50.300Z,100861.60
2023-05-15T05:26:37.531Z,100857.48
2023-05-15T05:29:48.508Z,100855.70
2023-05-15T05:33:10.802Z,100856.40
2023-05-15T05:36:45.461Z,100855.77
2023-05-15T05:40:25.489Z,100856.63
2023-05-15T05:43:34.163Z,100856.77
2023-05-15T05:47:16.514Z,100848.84
2023-05-15T05:50:44.136Z,100847.39
2023-05-15T05:54:16.842Z,100842.42
2023-05-15T05:57:42.057Z,100842.30
2023-05-15T06:01:22.968Z,100838.41
2023-05-15T06:05:00.173Z,100840.46
2023-05-15T06:08:37.116Z,100836.71
2023-05-15T06:12:08.289Z,100838.22
2023-05-15T06:15:30.268Z,100839.68
2023-05-15T06:19:03.644Z,100838.15
2023-05-15T06:22:29.617Z,100837.95
2023-05-15T06:25:53.382Z,100833.49
2023-05-15T06:29:07.475Z,100831.42
2023-05-15T06:32:18.440Z,100831.71
2023-05-15T06:35:24.319Z,100827.66
2023-05-15T06:38:21.097Z,100830.75
2023-05-15T06:41:58.040Z,100825.63
2023-05-15T06:45:31.531Z,100821.52
2023-05-15T06:48:51.839Z,100816.80
2023-05-15T06:51:56.633Z,100816.38
2023-05-15T06:54:49.786Z,100815.19
2023-05-15T06:58:18.727Z,100816.64
2023-05-15T07:01:17.686Z,100811.70
2023-05-15T07:04:55.267Z,100808.17
2023-05-15T07:08:27.338Z,100810.74
2023-05-15T07:11:42.332Z,100808.96
2023-05-15T07:15:18.906Z,100811.11
2023-05-15T07:18:49.659Z,100808.42
2023-05-15T07:21:57.867Z,100810.13
2023-05-15T07:25:28.802Z,100808.09
2023-05-15T07:28:36.824Z,100803.34
2023-05-15T07:31:45.780Z,100800.96
2023-05-15T07:35:10.488Z,100800.85
2023-05-15T07:38:33.288Z,100796.16
2023-05-15T07:42:12.412Z,100795.89
2023-05-15T07:45:06.313Z,100795.19
2023-05-15T07:48:16.600Z,100792.66
2023-05-15T07:51:47.604Z,100789.34
2023-05-15T07:54:41.640Z,100785.69
2023-05-15T07:57:40.876Z,100780.94
2023-05-15T08:00:56.915Z,100779.81
2023-05-15T08:03:45.025Z,100772.02
2023-05-15T08:06:47.188Z,100765.58
2023-05-15T08:10:07.027Z,100766.63
2023-05-15T08:12:51.623Z,100763.77
2023-05-15T08:15:30.639Z,100761.23
2023-05-15T08:18:37.755Z,100757.39
2023-05-15T08:21:46.271Z,100758.44
2023-05-15T08:24:36.665Z,100759.67
2023-05-15T08:27:45.170Z,100757.35
2023-05-15T08:30:56.560Z,100753.11
2023-05-15T08:34:04.479Z,100746.34
2023-05-15T08:37:26.423Z,100747.52
2023-05-15T08:40:58.421Z,100746.59
2023-05-15T08:44:39.426Z,100747.44
2023-05-15T08:47:45.178Z,100741.36
2023-05-15T08:50:47.455Z,100737.66
2023-05-15T08:53:35.059Z,100738.46
2023-05-15T08:56:31.881Z,100741.58
2023-05-15T08:59:29.469Z,100737.23
2023-05-15T09:02:16.572Z,100729.92
2023-05-15T09:05:29.183Z,100728.82
2023-05-15T09:08:32.169Z,100731.77
2023-05-15T09:11:47.156Z,100731.66
2023-05-15T09:15:39.116Z,100733.39
2023-05-15T09:18:52.747Z,100728.93
2023-05-15T09:21:56.901Z,100724.33
2023-05-15T09:24:53.184Z,100721.91
2023-05-15T09:28:44.462Z,100718.80
2023-05-15T09:31:31.785Z,100714.81
2023-05-15T09:34:22.735Z,100717.77
2023-05-15T09:36:50.211Z,100704.27
2023-05-15T09:40:19.295Z,100707.63
2023-05-15T09:43:22.747Z,100710.73
2023-05-15T09:46:43.450Z,100713.69
2023-05-15T09:49:34.637Z,100712.54
2023-05-15T09:52:42.411Z,100714.64
2023-05-15T09:56:21.036Z,100717.28
2023-05-15T10:00:09.132Z,100715.66
2023-05-15T10:04:03.459Z,100715.27
2023-05-15T10:07:19.652Z,100715.41
2023-05-15T10:11:01.512Z,100708.23
2023-05-15T10:14:32.779Z,100705.73
2023-05-15T10:18:12.908Z,100699.09
2023-05-15T10:21:54.969Z,100701.71
2023-05-15T10:25:28.837Z,100692.66
2023-05-15T10:28:38.802Z,100691.17
2023-05-15T10:32:15.405Z,100684.91
2023-05-15T10:35:46.031Z,100687.02
2023-05-15T10:39:17.549Z,100686.85
2023-05-15T10:42:36.193Z,100686.16
2023-05-15T10:46:21.247Z,100677.58
2023-05-15T10:49:14.201Z,100686.09
2023-05-15T10:52:12.131Z,100684.41
2023-05-15T10:55:20.531Z,100683.75
2023-05-15T10:58:53.151Z,100677.80
2023-05-15T11:02:01.165Z,100665.54
2023-05-15T11:05:12.781Z,100664.92
2023-05-15T11:08:58.948Z,100664.52
2023-05-15T11:12:15.392Z,100659.37
2023-05-15T11:15:04.743Z,100646.20
2023-05-15T11:18:12.350Z,100647.09
2023-05-15T11:21:15.304Z,100644.04
2023-05-15T11:24:36.179Z,100642.64
2023-05-15T11:27:13.497Z,100635.17
2023-05-15T11:30:30.497Z,100623.63
2023-05-15T11:33:38.221Z,100628.52
2023-05-15T11:36:26.382Z,100620.48
2023-05-15T11:39:11.568Z,100618.03
2023-05-15T11:42:17.514Z,100610.73
2023-05-15T11:44:51.483Z,100613.27
2023-05-15T11:48:00.311Z,100613.80
2023-05-15T11:51:08.392Z,100610.44
2023-05-15T11:53:56.044Z,100609.88
2023-05-15T11:59:48.372Z,100611.42
2023-05-15T12:03:10.328Z,100607.71
2023-05-15T12:05:57.624Z,100601.94
2023-05-15T12:08:53.216Z,100593.65
2023-05-15T12:11:58.975Z,100593.66
2023-05-15T12:15:20.799Z,100592.83
2023-05-15T12:18:07.804Z,100585.54
2023-05-15T12:21:06.129Z,100587.54
2023-05-15T12:24:08.042Z,100583.40
2023-05-15T12:27:37.617Z,100572.04
2023-05-15T12:30:37.779Z,100570.17
2023-05-15T12:33:37.631Z,100564.46
2023-05-15T12:36:53.924Z,100562.16
2023-05-15T12:40:30.975Z,100561.62
2023-05-15T12:43:49.023Z,100555.53
2023-05-15T12:47:02.047Z,100563.48
2023-05-15T12:50:41.042Z,100567.41
2023-05-15T12:53:58.879Z,100570.56
2023-05-15T12:57:13.637Z,100575.20
2023-05-15T13:01:06.461Z,100574.86
2023-05-15T13:04:37.219Z,100570.23
2023-05-15T13:07:23.526Z,100570.52
2023-05-15T13:10:34.064Z,100569.79
2023-05-15T13:13:29.762Z,100575.93
2023-05-15T13:16:43.064Z,100576.64
2023-05-15T13:19:57.089Z,100579.55
2023-05-15T13:22:28.050Z,100577.98
2023-05-15T13:24:57.281Z,100574.20
2023-05-15T13:27:24.946Z,100573.85
2023-05-15T13:30:25.196Z,100578.33
2023-05-15T13:32:55.977Z,100574.88
2023-05-15T13:35:33.844Z,100570.90
2023-05-15T13:38:18.456Z,100566.64
2023-05-15T13:41:47.411Z,100570.98
2023-05-15T13:45:10.872Z,100564.02
2023-05-15T13:48:28.338Z,100563.67
2023-05-15T13:51:49.466Z,100564.35
2023-05-15T13:55:02.611Z,100561.58
2023-05-15T13:58:44.153Z,100557.20
2023-05-15T14:01:56.412Z,100551.21
2023-05-15T14:05:20.908Z,100543.02
2023-05-15T14:08:33.262Z,100539.25
2023-05-15T14:11:47.308Z,100542.65
2023-05-15T14:14:45.963Z,100537.77
2023-05-15T14:18:05.848Z,100533.58
2023-05-15T14:21:04.868Z,100534.23
2023-05-15T14:24:05.696Z,100532.05
2023-05-15T14:27:35.494Z,100531.92
2023-05-15T14:31:05.353Z,100528.86
2023-05-15T14:34:07.061Z,100531.48
2023-05-15T14:37:05.722Z,100534.61
2023-05-15T14:40:06.413Z,100534.37
2023-05-15T14:43:08.967Z,100528.59
2023-05-15T14:45:41.794Z,100530.24
2023-05-15T14:48:31.079Z,100530.84
2023-05-15T14:51:14.125Z,100530.09
2023-05-15T14:54:21.807Z,100525.95
2023-05-15T14:56:49.018Z,100524.16
2023-05-15T14:59:36.667Z,100519.67
2023-05-15T15:02:06.601Z,100515.19
2023-05-15T15:05:14.780Z,100509.86
2023-05-15T15:08:59.834Z,100509.79
2023-05-15T15:12:21.677Z,100504.04
2023-05-15T15:15:29.449Z,100506.54
2023-05-15T15:18:37.556Z,100504.70
2023-05-15T15:21:54.889Z,100502.83
2023-05-15T15:25:01.231Z,100505.01
2023-05-15T15:28:23.875Z,100496.91
2023-05-15T15:31:08.898Z,100493.56
2023-05-15T15:34:24.078Z,100499.66
2023-05-15T15:37:39.031Z,100491.48
2023-05-15T15:41:10.381Z,100495.14
2023-05-15T15:44:41.250Z,100498.79
2023-05-15T15:47:44.631Z,100497.23
2023-05-15T15:51:26.501Z,100499.78
2023-05-15T15:54:37.799Z,100500.54
2023-05-15T15:57:59.006Z,100496.21
2023-05-15T16:01:25.943Z,100495.83
2023-05-15T16:04:37.043Z,100494.29
2023-05-15T16:08:10.196Z,100492.08
2023-05-15T16:11:37.000Z,100487.74
2023-05-15T16:14:45.031Z,100490.71
2023-05-15T16:18:02.645Z,100492.33
2023-05-15T16:21:29.331Z,100495.62
2023-05-15T16:28:29.096Z,100492.50
2023-05-15T16:31:56.597Z,100489.00
2023-05-15T16:35:02.111Z,100492.97
2023-05-15T16:38:26.082Z,100494.55
2023-05-15T16:42:14.058Z,100491.02
2023-05-15T16:46:02.235Z,100495.55
2023-05-15T16:48:55.706Z,100496.54
2023-05-15T16:52:20.794Z,100493.27
2023-05-15T16:55:30.391Z,100496.75
2023-05-15T16:58:56.613Z,100496.80
2023-05-15T17:02:28.524Z,100498.13
2023-05-15T17:06:06.091Z,100491.65
2023-05-15T17:09:11.864Z,100492.27
2023-05-15T17:12:33.526Z,100486.35
2023-05-15T17:15:37.870Z,100491.12
2023-05-15T17:18:45.625Z,100495.38
2023-05-15T17:21:59.137Z,100497.64
2023-05-15T17:24:55.333Z,100498.25
2023-05-15T17:27:55.847Z,100505.00
2023-05-15T17:31:29.747Z,100506.88
2023-05-15T17:35:27.539Z,100517.70
2023-05-15T17:38:31.864Z,100524.20
2023-05-15T17:41:58.667Z,100531.00
2023-05-15T17:45:00.510Z,100534.50
2023-05-15T17:48:45.183Z,100537.98
2023-05-15T17:52:01.721Z,100538.10
2023-05-15T17:55:26.071Z,100539.42
2023-05-15T17:58:57.104Z,100544.90
2023-05-15T18:02:25.057Z,100550.20
2023-05-15T18:05:58.134Z,100547.20
2023-05-15T18:09:29.767Z,100554.65
2023-05-15T18:12:31.549Z,100559.29
2023-05-15T18:16:08.727Z,100557.55
2023-05-15T18:19:44.048Z,100555.90
2023-05-15T18:23:20.315Z,100561.20
2023-05-15T18:26:23.771Z,100563.25
2023-05-15T18:29:45.634Z,100568.55
2023-05-15T18:33:18.524Z,100572.08
2023-05-15T18:35:46.088Z,100570.66
2023-05-15T18:39:02.841Z,100573.39
2023-05-15T18:42:22.231Z,100577.08
2023-05-15T18:45:09.908Z,100580.14
2023-05-15T18:48:17.476Z,100577.62
2023-05-15T18:50:44.539Z,100586.19
2023-05-15T18:53:21.922Z,100589.52
2023-05-15T18:56:33.531Z,100594.73
2023-05-15T18:59:59.541Z,100595.73
2023-05-15T19:03:26.038Z,100596.66
2023-05-15T19:06:53.693Z,100598.42
2023-05-15T19:10:09.154Z,100598.48
2023-05-15T19:13:42.634Z,100591.60
2023-05-15T19:17:25.486Z,100588.35
2023-05-15T19:21:07.635Z,100585.48
2023-05-15T19:24:54.793Z,100585.77
2023-05-15T19:28:20.319Z,100585.16
2023-05-15T19:31:42.413Z,100586.00
2023-05-15T19:35:00.204Z,100587.19
2023-05-15T19:38:49.049Z,100586.59
2023-05-15T19:42:19.819Z,100591.07
2023-05-15T19:45:29.790Z,100594.08
2023-05-15T19:49:05.833Z,100594.96
2023-05-15T19:52:53.046Z,100597.61
2023-05-15T19:56:23.057Z,100604.62
2023-05-15T20:00:11.113Z,100607.91
2023-05-15T20:03:45.728Z,100611.01
2023-05-15T20:06:55.383Z,100613.09
2023-05-15T20:09:58.104Z,100611.96
2023-05-15T20:13:03.157Z,100614.21
2023-05-15T20:16:24.207Z,100616.41
2023-05-15T20:19:28.464Z,100619.78
2023-05-15T20:22:33.663Z,100620.83
2023-05-15T20:25:40.228Z,100626.16
2023-05-15T20:28:50.930Z,100627.46
2023-05-15T20:32:19.312Z,100627.48
2023-05-15T20:34:58.914Z,100635.40
2023-05-15T20:38:34.097Z,100637.52
2023-05-15T20:41:50.176Z,100633.77
2023-05-15T20:44:30.052Z,100639.04
2023-05-15T20:47:45.030Z,100638.83
2023-05-15T20:51:14.879Z,100640.68
2023-05-15T20:54:03.342Z,100641.61
2023-05-15T20:57:23.402Z,100639.39
2023-05-15T21:00:51.480Z,100634.07
2023-05-15T21:04:18.588Z,100631.32
2023-05-15T21:07:49.480Z,100631.34
2023-05-15T21:11:24.867Z,100638.58
2023-05-15T21:14:46.505Z,100642.78
2023-05-15T21:18:11.189Z,100645.02
2023-05-15T21:21:30.381Z,100649.06
2023-05-15T21:24:57.519Z,100643.01
2023-05-15T21:27:53.059Z,100637.84
2023-05-15T21:30:43.072Z,100640.20
2023-05-15T21:33:51.831Z,100640.42
2023-05-15T21:36:33.853Z,100638.18
2023-05-15T21:39:19.155Z,100638.12
2023-05-15T21:42:29.938Z,100643.98
2023-05-15T21:46:07.134Z,100647.73
2023-05-15T21:49:21.393Z,100648.67
2023-05-15T21:52:18.904Z,100645.77
2023-05-15T21:55:30.521Z,100644.95
2023-05-15T21:58:46.235Z,100645.77
2023-05-15T22:02:10.217Z,100648.04
2023-05-15T22:05:37.441Z,100645.51
2023-05-15T22:09:18.507Z,100650.02
2023-05-15T22:12:58.669Z,100643.84
2023-05-15T22:16:40.530Z,100639.19
2023-05-15T22:20:07.896Z,100639.17
2023-05-15T22:23:54.882Z,100641.55
2023-05-15T22:27:16.908Z,100637.02
2023-05-15T22:30:30.660Z,100637.52
2023-05-15T22:33:51.420Z,100635.42
2023-05-15T22:37:33.116Z,100634.17
2023-05-15T22:41:18.923Z,100627.05
2023-05-15T22:44:54.198Z,100626.66
2023-05-15T22:48:40.975Z,100628.41
2023-05-15T22:52:28.892Z,100627.23
2023-05-15T22:55:39.670Z,100618.41
2023-05-15T22:59:16.365Z,100615.89
2023-05-15T23:03:02.065Z,100606.27
2023-05-15T23:06:49.229Z,100603.72
2023-05-15T23:10:02.141Z,100607.18
2023-05-15T23:13:40.353Z,100602.90
2023-05-15T23:17:21.260Z,100600.71
2023-05-15T23:20:53.943Z,100596.33
2023-05-15T23:24:41.930Z,100597.36
2023-05-15T23:28:18.690Z,100597.03
2023-05-15T23:31:52.265Z,100593.99
2023-05-15T23:35:33.654Z,100590.52
2023-05-15T23:38:52.170Z,100592.20
2023-05-15T23:42:38.922Z,100590.98
2023-05-15T23:46:19.665Z,100589.91
2023-05-15T23:49:59.025Z,100588.58
2023-05-15T23:53:25.864Z,100586.04
2023-05-15T23:57:13.893Z,100587.98
